sensor_id;sensor_type;location;lat;lon;timestamp;temperature;humidity
28969;DHT22;16076;51.194;6.642;2022-08-19T00:00:23;19.20;99.90
28969;DHT22;16076;51.194;6.642;2022-08-19T00:02:51;19.20;99.90
28969;DHT22;16076;51.194;6.642;2022-08-19T00:05:17;19.20;99.90
28969;DHT22;16076;51.194;6.642;2022-08-19T00:07:48;19.20;99.90
28969;DHT22;16076;51.194;6.642;2022-08-19T00:10:16;19.20;99.90
28969;DHT22;16076;51.194;6.642;2022-08-19T00:12:43;19.20;99.90
28969;DHT22;16076;51.194;6.642;2022-08-19T00:15:10;19.20;99.90
28969;DHT22;16076;51.194;6.642;2022-08-19T00:17:43;19.20;99.90
28969;DHT22;16076;51.194;6.642;2022-08-19T00:20:11;19.20;99.90
28969;DHT22;16076;51.194;6.642;2022-08-19T00:22:38;19.20;99.90
28969;DHT22;16076;51.194;6.642;2022-08-19T00:25:05;19.20;99.90
28969;DHT22;16076;51.194;6.642;2022-08-19T00:27:31;19.20;99.90
28969;DHT22;16076;51.194;6.642;2022-08-19T00:29:57;19.20;99.90
28969;DHT22;16076;51.194;6.642;2022-08-19T00:32:25;19.20;99.90
28969;DHT22;16076;51.194;6.642;2022-08-19T00:34:51;19.20;99.90
28969;DHT22;16076;51.194;6.642;2022-08-19T00:37:22;19.20;99.90
28969;DHT22;16076;51.194;6.642;2022-08-19T00:39:49;19.20;99.90
28969;DHT22;16076;51.194;6.642;2022-08-19T00:42:16;19.10;99.90
28969;DHT22;16076;51.194;6.642;2022-08-19T00:44:42;19.10;99.90
28969;DHT22;16076;51.194;6.642;2022-08-19T00:47:08;19.10;99.90
28969;DHT22;16076;51.194;6.642;2022-08-19T00:49:40;19.10;99.90
28969;DHT22;16076;51.194;6.642;2022-08-19T00:52:13;19.10;99.90
28969;DHT22;16076;51.194;6.642;2022-08-19T00:54:40;19.10;99.90
28969;DHT22;16076;51.194;6.642;2022-08-19T00:57:13;19.10;99.90
28969;DHT22;16076;51.194;6.642;2022-08-19T00:59:45;19.10;99.90
28969;DHT22;16076;51.194;6.642;2022-08-19T01:02:12;19.00;99.90
28969;DHT22;16076;51.194;6.642;2022-08-19T01:04:38;19.00;99.90
28969;DHT22;16076;51.194;6.642;2022-08-19T01:07:07;18.90;99.90
28969;DHT22;16076;51.194;6.642;2022-08-19T01:09:33;18.90;99.90
28969;DHT22;16076;51.194;6.642;2022-08-19T01:12:04;18.90;99.90
28969;DHT22;16076;51.194;6.642;2022-08-19T01:14:31;18.90;99.90
28969;DHT22;16076;51.194;6.642;2022-08-19T01:16:57;18.90;99.90
28969;DHT22;16076;51.194;6.642;2022-08-19T01:24:38;18.90;99.90
28969;DHT22;16076;51.194;6.642;2022-08-19T01:27:07;18.80;99.90
28969;DHT22;16076;51.194;6.642;2022-08-19T01:29:38;18.80;99.90
28969;DHT22;16076;51.194;6.642;2022-08-19T01:32:07;18.80;99.90
28969;DHT22;16076;51.194;6.642;2022-08-19T01:34:34;18.80;99.90
28969;DHT22;16076;51.194;6.642;2022-08-19T01:37:00;18.80;99.90
28969;DHT22;16076;51.194;6.642;2022-08-19T01:39:30;18.80;99.90
28969;DHT22;16076;51.194;6.642;2022-08-19T01:41:56;18.70;99.90
28969;DHT22;16076;51.194;6.642;2022-08-19T01:44:24;18.70;99.90
28969;DHT22;16076;51.194;6.642;2022-08-19T01:46:51;18.70;99.90
28969;DHT22;16076;51.194;6.642;2022-08-19T01:49:19;18.60;99.90
28969;DHT22;16076;51.194;6.642;2022-08-19T01:51:46;18.60;99.90
28969;DHT22;16076;51.194;6.642;2022-08-19T01:54:14;18.50;99.90
28969;DHT22;16076;51.194;6.642;2022-08-19T01:56:41;18.50;99.90
28969;DHT22;16076;51.194;6.642;2022-08-19T01:59:14;18.50;99.90
28969;DHT22;16076;51.194;6.642;2022-08-19T02:01:50;18.50;99.90
28969;DHT22;16076;51.194;6.642;2022-08-19T02:04:15;18.50;99.90
28969;DHT22;16076;51.194;6.642;2022-08-19T02:06:41;18.40;99.90
28969;DHT22;16076;51.194;6.642;2022-08-19T02:09:08;18.30;99.90
28969;DHT22;16076;51.194;6.642;2022-08-19T02:11:35;18.30;99.90
28969;DHT22;16076;51.194;6.642;2022-08-19T02:14:04;18.30;99.90
28969;DHT22;16076;51.194;6.642;2022-08-19T02:16:31;18.30;99.90
28969;DHT22;16076;51.194;6.642;2022-08-19T02:18:58;18.30;99.90
28969;DHT22;16076;51.194;6.642;2022-08-19T02:21:29;18.30;99.90
28969;DHT22;16076;51.194;6.642;2022-08-19T02:23:58;18.20;99.90
28969;DHT22;16076;51.194;6.642;2022-08-19T02:26:24;18.20;99.90
28969;DHT22;16076;51.194;6.642;2022-08-19T02:28:52;18.20;99.90
28969;DHT22;16076;51.194;6.642;2022-08-19T02:31:20;18.20;99.90
28969;DHT22;16076;51.194;6.642;2022-08-19T02:33:47;18.20;99.90
28969;DHT22;16076;51.194;6.642;2022-08-19T02:36:17;18.20;99.90
28969;DHT22;16076;51.194;6.642;2022-08-19T02:38:44;18.20;99.90
28969;DHT22;16076;51.194;6.642;2022-08-19T02:41:31;18.20;99.90
28969;DHT22;16076;51.194;6.642;2022-08-19T02:43:58;18.20;99.90
28969;DHT22;16076;51.194;6.642;2022-08-19T02:46:30;18.20;99.90
28969;DHT22;16076;51.194;6.642;2022-08-19T02:49:00;18.20;99.90
28969;DHT22;16076;51.194;6.642;2022-08-19T02:51:33;18.20;99.90
28969;DHT22;16076;51.194;6.642;2022-08-19T02:53:59;18.10;99.90
28969;DHT22;16076;51.194;6.642;2022-08-19T02:56:26;18.20;99.90
28969;DHT22;16076;51.194;6.642;2022-08-19T02:58:57;18.20;99.90
28969;DHT22;16076;51.194;6.642;2022-08-19T03:01:32;18.20;99.90
28969;DHT22;16076;51.194;6.642;2022-08-19T03:04:00;18.20;99.90
28969;DHT22;16076;51.194;6.642;2022-08-19T03:06:27;18.10;99.90
28969;DHT22;16076;51.194;6.642;2022-08-19T03:08:53;18.10;99.90
28969;DHT22;16076;51.194;6.642;2022-08-19T03:11:25;18.00;99.90
28969;DHT22;16076;51.194;6.642;2022-08-19T03:13:54;18.00;99.90
28969;DHT22;16076;51.194;6.642;2022-08-19T03:16:25;18.00;99.90
28969;DHT22;16076;51.194;6.642;2022-08-19T03:18:51;17.90;99.90
28969;DHT22;16076;51.194;6.642;2022-08-19T03:21:24;17.90;99.90
28969;DHT22;16076;51.194;6.642;2022-08-19T03:23:53;17.80;99.90
28969;DHT22;16076;51.194;6.642;2022-08-19T03:26:19;17.80;99.90
28969;DHT22;16076;51.194;6.642;2022-08-19T03:28:45;17.70;99.90
28969;DHT22;16076;51.194;6.642;2022-08-19T03:31:19;17.70;99.90
28969;DHT22;16076;51.194;6.642;2022-08-19T03:33:46;17.60;99.90
28969;DHT22;16076;51.194;6.642;2022-08-19T03:36:15;17.60;99.90
28969;DHT22;16076;51.194;6.642;2022-08-19T03:38:49;17.50;99.90
28969;DHT22;16076;51.194;6.642;2022-08-19T03:41:24;17.50;99.90
28969;DHT22;16076;51.194;6.642;2022-08-19T03:43:51;17.50;99.90
28969;DHT22;16076;51.194;6.642;2022-08-19T03:46:20;17.50;99.90
28969;DHT22;16076;51.194;6.642;2022-08-19T03:48:47;17.60;99.90
28969;DHT22;16076;51.194;6.642;2022-08-19T03:51:19;17.50;99.90
28969;DHT22;16076;51.194;6.642;2022-08-19T03:53:45;17.50;99.90
28969;DHT22;16076;51.194;6.642;2022-08-19T03:56:12;17.50;99.90
28969;DHT22;16076;51.194;6.642;2022-08-19T03:58:39;17.50;99.90
28969;DHT22;16076;51.194;6.642;2022-08-19T04:01:17;17.50;99.90
28969;DHT22;16076;51.194;6.642;2022-08-19T04:03:44;17.50;99.90
28969;DHT22;16076;51.194;6.642;2022-08-19T04:06:13;17.40;99.90
28969;DHT22;16076;51.194;6.642;2022-08-19T04:08:40;17.40;99.90
28969;DHT22;16076;51.194;6.642;2022-08-19T04:11:12;17.30;99.90
28969;DHT22;16076;51.194;6.642;2022-08-19T04:13:37;17.30;99.90
28969;DHT22;16076;51.194;6.642;2022-08-19T04:16:04;17.30;99.90
28969;DHT22;16076;51.194;6.642;2022-08-19T04:18:49;17.30;99.90
28969;DHT22;16076;51.194;6.642;2022-08-19T04:24:37;17.30;99.90
28969;DHT22;16076;51.194;6.642;2022-08-19T04:30:44;17.30;99.90
28969;DHT22;16076;51.194;6.642;2022-08-19T04:33:19;17.30;99.90
28969;DHT22;16076;51.194;6.642;2022-08-19T04:35:46;17.30;99.90
28969;DHT22;16076;51.194;6.642;2022-08-19T04:38:16;17.30;99.90
28969;DHT22;16076;51.194;6.642;2022-08-19T04:40:45;17.40;99.90
28969;DHT22;16076;51.194;6.642;2022-08-19T04:43:31;17.40;99.90
28969;DHT22;16076;51.194;6.642;2022-08-19T04:46:05;17.50;99.90
28969;DHT22;16076;51.194;6.642;2022-08-19T04:48:31;17.50;99.90
28969;DHT22;16076;51.194;6.642;2022-08-19T04:50:57;17.50;99.90
28969;DHT22;16076;51.194;6.642;2022-08-19T04:53:28;17.50;99.90
28969;DHT22;16076;51.194;6.642;2022-08-19T04:58:35;17.60;99.90
28969;DHT22;16076;51.194;6.642;2022-08-19T05:01:00;17.50;99.90
28969;DHT22;16076;51.194;6.642;2022-08-19T05:03:26;17.50;99.90
28969;DHT22;16076;51.194;6.642;2022-08-19T05:05:52;17.60;99.90
28969;DHT22;16076;51.194;6.642;2022-08-19T05:08:20;17.60;99.90
28969;DHT22;16076;51.194;6.642;2022-08-19T05:10:48;17.60;99.90
28969;DHT22;16076;51.194;6.642;2022-08-19T05:13:18;17.60;99.90
28969;DHT22;16076;51.194;6.642;2022-08-19T05:15:55;17.60;99.90
28969;DHT22;16076;51.194;6.642;2022-08-19T05:18:24;17.60;99.90
28969;DHT22;16076;51.194;6.642;2022-08-19T05:21:11;17.70;99.90
28969;DHT22;16076;51.194;6.642;2022-08-19T05:23:58;17.70;99.90
28969;DHT22;16076;51.194;6.642;2022-08-19T05:26:25;17.80;99.90
28969;DHT22;16076;51.194;6.642;2022-08-19T05:28:52;17.90;99.90
28969;DHT22;16076;51.194;6.642;2022-08-19T05:31:21;18.00;99.90
28969;DHT22;16076;51.194;6.642;2022-08-19T05:33:47;18.10;99.90
28969;DHT22;16076;51.194;6.642;2022-08-19T05:36:13;18.20;99.90
28969;DHT22;16076;51.194;6.642;2022-08-19T05:38:39;18.30;99.90
28969;DHT22;16076;51.194;6.642;2022-08-19T05:41:13;18.40;99.90
28969;DHT22;16076;51.194;6.642;2022-08-19T05:43:41;18.60;99.90
28969;DHT22;16076;51.194;6.642;2022-08-19T05:46:07;18.60;99.90
28969;DHT22;16076;51.194;6.642;2022-08-19T05:48:34;18.70;99.90
28969;DHT22;16076;51.194;6.642;2022-08-19T05:51:07;18.80;99.90
28969;DHT22;16076;51.194;6.642;2022-08-19T05:53:36;18.90;99.90
28969;DHT22;16076;51.194;6.642;2022-08-19T05:56:06;19.00;99.90
28969;DHT22;16076;51.194;6.642;2022-08-19T05:58:32;19.10;99.90
28969;DHT22;16076;51.194;6.642;2022-08-19T06:00:59;19.20;99.90
28969;DHT22;16076;51.194;6.642;2022-08-19T06:03:31;19.40;99.90
28969;DHT22;16076;51.194;6.642;2022-08-19T06:05:58;19.50;99.90
28969;DHT22;16076;51.194;6.642;2022-08-19T06:08:25;19.60;99.90
28969;DHT22;16076;51.194;6.642;2022-08-19T06:10:52;19.70;99.90
28969;DHT22;16076;51.194;6.642;2022-08-19T06:13:18;19.80;99.90
28969;DHT22;16076;51.194;6.642;2022-08-19T06:15:45;20.00;99.90
28969;DHT22;16076;51.194;6.642;2022-08-19T06:18:14;20.20;99.90
28969;DHT22;16076;51.194;6.642;2022-08-19T06:20:40;20.30;99.90
28969;DHT22;16076;51.194;6.642;2022-08-19T06:23:09;20.50;99.90
28969;DHT22;16076;51.194;6.642;2022-08-19T06:25:38;20.50;99.90
28969;DHT22;16076;51.194;6.642;2022-08-19T06:28:06;20.60;99.90
28969;DHT22;16076;51.194;6.642;2022-08-19T06:30:32;20.70;99.90
28969;DHT22;16076;51.194;6.642;2022-08-19T06:32:58;20.80;99.90
28969;DHT22;16076;51.194;6.642;2022-08-19T06:35:23;20.90;99.90
28969;DHT22;16076;51.194;6.642;2022-08-19T06:37:50;21.00;99.90
28969;DHT22;16076;51.194;6.642;2022-08-19T06:40:17;21.10;99.90
28969;DHT22;16076;51.194;6.642;2022-08-19T06:42:43;21.10;99.90
28969;DHT22;16076;51.194;6.642;2022-08-19T06:45:09;21.10;99.90
28969;DHT22;16076;51.194;6.642;2022-08-19T06:47:35;21.10;99.90
28969;DHT22;16076;51.194;6.642;2022-08-19T06:50:02;21.20;99.90
28969;DHT22;16076;51.194;6.642;2022-08-19T06:52:31;21.30;99.90
28969;DHT22;16076;51.194;6.642;2022-08-19T06:55:00;21.30;99.90
28969;DHT22;16076;51.194;6.642;2022-08-19T06:57:26;21.40;99.90
28969;DHT22;16076;51.194;6.642;2022-08-19T06:59:52;21.50;99.90
28969;DHT22;16076;51.194;6.642;2022-08-19T07:02:19;21.60;99.90
28969;DHT22;16076;51.194;6.642;2022-08-19T07:04:48;21.70;99.90
28969;DHT22;16076;51.194;6.642;2022-08-19T07:07:22;21.80;99.90
28969;DHT22;16076;51.194;6.642;2022-08-19T07:09:49;21.90;99.90
28969;DHT22;16076;51.194;6.642;2022-08-19T07:12:15;22.00;99.90
28969;DHT22;16076;51.194;6.642;2022-08-19T07:14:42;22.10;99.90
28969;DHT22;16076;51.194;6.642;2022-08-19T07:17:10;22.20;99.90
28969;DHT22;16076;51.194;6.642;2022-08-19T07:19:38;22.30;99.90
28969;DHT22;16076;51.194;6.642;2022-08-19T07:22:06;22.40;99.90
28969;DHT22;16076;51.194;6.642;2022-08-19T07:24:32;22.60;99.90
28969;DHT22;16076;51.194;6.642;2022-08-19T07:27:00;22.80;99.90
28969;DHT22;16076;51.194;6.642;2022-08-19T07:29:33;23.10;99.90
28969;DHT22;16076;51.194;6.642;2022-08-19T07:32:00;23.40;99.90
28969;DHT22;16076;51.194;6.642;2022-08-19T07:34:30;23.70;99.90
28969;DHT22;16076;51.194;6.642;2022-08-19T07:36:56;23.80;99.90
28969;DHT22;16076;51.194;6.642;2022-08-19T07:39:30;23.90;99.90
28969;DHT22;16076;51.194;6.642;2022-08-19T07:41:57;23.90;99.90
28969;DHT22;16076;51.194;6.642;2022-08-19T07:44:25;23.80;99.90
28969;DHT22;16076;51.194;6.642;2022-08-19T07:46:54;23.80;99.90
28969;DHT22;16076;51.194;6.642;2022-08-19T07:49:22;23.70;99.90
28969;DHT22;16076;51.194;6.642;2022-08-19T07:51:57;23.70;99.90
28969;DHT22;16076;51.194;6.642;2022-08-19T07:54:29;23.70;99.90
28969;DHT22;16076;51.194;6.642;2022-08-19T07:56:54;23.80;99.90
28969;DHT22;16076;51.194;6.642;2022-08-19T07:59:24;23.80;99.90
28969;DHT22;16076;51.194;6.642;2022-08-19T08:01:50;24.00;99.90
28969;DHT22;16076;51.194;6.642;2022-08-19T08:04:17;24.00;99.90
28969;DHT22;16076;51.194;6.642;2022-08-19T08:07:02;24.10;99.90
28969;DHT22;16076;51.194;6.642;2022-08-19T08:09:46;24.30;99.90
28969;DHT22;16076;51.194;6.642;2022-08-19T08:12:21;24.50;99.90
28969;DHT22;16076;51.194;6.642;2022-08-19T08:14:53;24.80;99.90
28969;DHT22;16076;51.194;6.642;2022-08-19T08:17:23;25.20;99.90
28969;DHT22;16076;51.194;6.642;2022-08-19T08:19:49;25.50;99.90
28969;DHT22;16076;51.194;6.642;2022-08-19T08:22:20;25.60;99.90
28969;DHT22;16076;51.194;6.642;2022-08-19T08:25:08;25.80;99.90
28969;DHT22;16076;51.194;6.642;2022-08-19T08:27:44;26.10;99.90
28969;DHT22;16076;51.194;6.642;2022-08-19T08:30:18;26.20;99.90
28969;DHT22;16076;51.194;6.642;2022-08-19T08:32:44;26.20;99.90
28969;DHT22;16076;51.194;6.642;2022-08-19T08:35:13;26.10;99.90
28969;DHT22;16076;51.194;6.642;2022-08-19T08:37:40;26.10;99.90
28969;DHT22;16076;51.194;6.642;2022-08-19T08:42:51;26.00;99.90
28969;DHT22;16076;51.194;6.642;2022-08-19T08:45:20;26.10;99.90
28969;DHT22;16076;51.194;6.642;2022-08-19T08:47:52;26.20;99.90
28969;DHT22;16076;51.194;6.642;2022-08-19T08:50:24;26.20;99.90
28969;DHT22;16076;51.194;6.642;2022-08-19T08:52:56;26.10;99.90
28969;DHT22;16076;51.194;6.642;2022-08-19T08:55:27;26.00;99.90
28969;DHT22;16076;51.194;6.642;2022-08-19T08:58:05;25.90;99.90
28969;DHT22;16076;51.194;6.642;2022-08-19T09:00:39;25.90;99.90
28969;DHT22;16076;51.194;6.642;2022-08-19T09:03:27;25.80;99.90
28969;DHT22;16076;51.194;6.642;2022-08-19T09:06:02;25.70;99.90
28969;DHT22;16076;51.194;6.642;2022-08-19T09:09:03;25.70;99.90
28969;DHT22;16076;51.194;6.642;2022-08-19T09:11:44;25.70;99.90
28969;DHT22;16076;51.194;6.642;2022-08-19T09:14:21;25.60;99.90
28969;DHT22;16076;51.194;6.642;2022-08-19T09:16:52;25.60;99.90
28969;DHT22;16076;51.194;6.642;2022-08-19T09:19:18;25.50;99.90
28969;DHT22;16076;51.194;6.642;2022-08-19T09:21:44;25.60;99.90
28969;DHT22;16076;51.194;6.642;2022-08-19T09:24:11;25.60;99.90
28969;DHT22;16076;51.194;6.642;2022-08-19T09:26:39;25.60;99.90
28969;DHT22;16076;51.194;6.642;2022-08-19T09:29:05;25.70;99.90
28969;DHT22;16076;51.194;6.642;2022-08-19T09:31:34;25.80;99.90
28969;DHT22;16076;51.194;6.642;2022-08-19T09:34:00;25.90;99.70
28969;DHT22;16076;51.194;6.642;2022-08-19T09:36:27;26.00;99.60
28969;DHT22;16076;51.194;6.642;2022-08-19T09:38:55;26.10;99.90
28969;DHT22;16076;51.194;6.642;2022-08-19T09:41:24;26.20;99.40
28969;DHT22;16076;51.194;6.642;2022-08-19T09:43:54;26.30;99.20
28969;DHT22;16076;51.194;6.642;2022-08-19T09:46:25;26.40;99.40
28969;DHT22;16076;51.194;6.642;2022-08-19T09:48:57;26.40;99.10
28969;DHT22;16076;51.194;6.642;2022-08-19T09:51:27;26.50;99.10
28969;DHT22;16076;51.194;6.642;2022-08-19T09:53:58;26.50;98.60
28969;DHT22;16076;51.194;6.642;2022-08-19T09:56:24;26.50;98.30
28969;DHT22;16076;51.194;6.642;2022-08-19T09:58:50;26.40;98.40
28969;DHT22;16076;51.194;6.642;2022-08-19T10:01:24;26.40;98.50
28969;DHT22;16076;51.194;6.642;2022-08-19T10:03:53;26.30;98.30
28969;DHT22;16076;51.194;6.642;2022-08-19T10:06:20;26.20;98.80
28969;DHT22;16076;51.194;6.642;2022-08-19T10:08:47;26.20;98.90
28969;DHT22;16076;51.194;6.642;2022-08-19T10:11:13;26.30;98.90
28969;DHT22;16076;51.194;6.642;2022-08-19T10:13:44;26.30;98.50
28969;DHT22;16076;51.194;6.642;2022-08-19T10:16:17;26.30;98.40
28969;DHT22;16076;51.194;6.642;2022-08-19T10:18:47;26.30;98.20
28969;DHT22;16076;51.194;6.642;2022-08-19T10:21:29;26.50;98.50
28969;DHT22;16076;51.194;6.642;2022-08-19T10:24:01;26.60;98.20
28969;DHT22;16076;51.194;6.642;2022-08-19T10:26:40;26.70;98.10
28969;DHT22;16076;51.194;6.642;2022-08-19T10:29:12;26.80;98.00
28969;DHT22;16076;51.194;6.642;2022-08-19T10:31:42;26.90;97.70
28969;DHT22;16076;51.194;6.642;2022-08-19T10:34:10;26.80;98.00
28969;DHT22;16076;51.194;6.642;2022-08-19T10:36:36;26.70;98.10
28969;DHT22;16076;51.194;6.642;2022-08-19T10:39:06;26.80;98.10
28969;DHT22;16076;51.194;6.642;2022-08-19T10:41:36;27.20;97.90
28969;DHT22;16076;51.194;6.642;2022-08-19T10:44:08;27.50;96.80
28969;DHT22;16076;51.194;6.642;2022-08-19T10:46:38;27.70;96.50
28969;DHT22;16076;51.194;6.642;2022-08-19T10:49:06;27.70;96.30
28969;DHT22;16076;51.194;6.642;2022-08-19T10:51:32;27.70;96.50
28969;DHT22;16076;51.194;6.642;2022-08-19T10:54:17;27.80;95.90
28969;DHT22;16076;51.194;6.642;2022-08-19T10:56:43;28.10;95.50
28969;DHT22;16076;51.194;6.642;2022-08-19T11:01:48;28.30;94.30
28969;DHT22;16076;51.194;6.642;2022-08-19T11:04:14;28.30;94.30
28969;DHT22;16076;51.194;6.642;2022-08-19T11:06:46;28.00;94.10
28969;DHT22;16076;51.194;6.642;2022-08-19T11:09:18;27.70;94.10
28969;DHT22;16076;51.194;6.642;2022-08-19T11:11:44;27.50;94.70
28969;DHT22;16076;51.194;6.642;2022-08-19T11:14:12;27.50;94.90
28969;DHT22;16076;51.194;6.642;2022-08-19T11:16:40;27.60;94.80
28969;DHT22;16076;51.194;6.642;2022-08-19T11:19:07;27.80;94.20
28969;DHT22;16076;51.194;6.642;2022-08-19T11:21:36;28.20;94.40
28969;DHT22;16076;51.194;6.642;2022-08-19T11:24:10;28.70;93.20
28969;DHT22;16076;51.194;6.642;2022-08-19T11:26:39;29.10;92.10
28969;DHT22;16076;51.194;6.642;2022-08-19T11:29:07;29.30;91.50
28969;DHT22;16076;51.194;6.642;2022-08-19T11:31:38;29.50;91.80
28969;DHT22;16076;51.194;6.642;2022-08-19T11:34:07;29.60;91.00
28969;DHT22;16076;51.194;6.642;2022-08-19T11:36:34;29.60;90.80
28969;DHT22;16076;51.194;6.642;2022-08-19T11:39:06;29.40;90.40
28969;DHT22;16076;51.194;6.642;2022-08-19T11:41:32;29.10;90.30
28969;DHT22;16076;51.194;6.642;2022-08-19T11:43:58;28.90;90.70
28969;DHT22;16076;51.194;6.642;2022-08-19T11:46:26;29.10;90.80
28969;DHT22;16076;51.194;6.642;2022-08-19T11:48:58;29.30;90.00
28969;DHT22;16076;51.194;6.642;2022-08-19T11:51:26;29.30;88.70
28969;DHT22;16076;51.194;6.642;2022-08-19T11:53:54;29.10;87.80
28969;DHT22;16076;51.194;6.642;2022-08-19T11:56:21;29.00;90.00
28969;DHT22;16076;51.194;6.642;2022-08-19T11:58:47;28.80;89.80
28969;DHT22;16076;51.194;6.642;2022-08-19T12:01:21;28.60;89.90
28969;DHT22;16076;51.194;6.642;2022-08-19T12:03:51;28.50;90.30
28969;DHT22;16076;51.194;6.642;2022-08-19T12:06:23;28.50;90.30
28969;DHT22;16076;51.194;6.642;2022-08-19T12:08:57;28.70;90.00
28969;DHT22;16076;51.194;6.642;2022-08-19T12:11:33;28.90;89.50
28969;DHT22;16076;51.194;6.642;2022-08-19T12:13:59;29.20;89.20
28969;DHT22;16076;51.194;6.642;2022-08-19T12:16:28;29.50;86.10
28969;DHT22;16076;51.194;6.642;2022-08-19T12:18:55;29.70;84.10
28969;DHT22;16076;51.194;6.642;2022-08-19T12:21:25;29.80;84.10
28969;DHT22;16076;51.194;6.642;2022-08-19T12:23:55;30.00;83.20
28969;DHT22;16076;51.194;6.642;2022-08-19T12:26:26;29.90;82.50
28969;DHT22;16076;51.194;6.642;2022-08-19T12:28:52;29.80;83.50
28969;DHT22;16076;51.194;6.642;2022-08-19T12:31:18;30.00;83.20
28969;DHT22;16076;51.194;6.642;2022-08-19T12:33:45;30.10;81.60
28969;DHT22;16076;51.194;6.642;2022-08-19T12:36:15;30.00;81.80
28969;DHT22;16076;51.194;6.642;2022-08-19T12:38:41;29.80;79.40
28969;DHT22;16076;51.194;6.642;2022-08-19T12:41:09;29.60;81.10
28969;DHT22;16076;51.194;6.642;2022-08-19T12:43:36;29.50;81.90
28969;DHT22;16076;51.194;6.642;2022-08-19T12:46:07;29.50;82.10
28969;DHT22;16076;51.194;6.642;2022-08-19T12:48:35;29.40;81.20
28969;DHT22;16076;51.194;6.642;2022-08-19T12:51:06;29.40;81.20
28969;DHT22;16076;51.194;6.642;2022-08-19T12:53:32;29.40;79.60
28969;DHT22;16076;51.194;6.642;2022-08-19T12:56:01;29.40;80.10
28969;DHT22;16076;51.194;6.642;2022-08-19T12:58:27;29.50;78.00
28969;DHT22;16076;51.194;6.642;2022-08-19T13:00:54;29.50;78.20
28969;DHT22;16076;51.194;6.642;2022-08-19T13:03:22;29.50;77.50
28969;DHT22;16076;51.194;6.642;2022-08-19T13:05:54;29.40;77.70
28969;DHT22;16076;51.194;6.642;2022-08-19T13:08:20;29.50;78.40
28969;DHT22;16076;51.194;6.642;2022-08-19T13:10:46;29.50;76.30
28969;DHT22;16076;51.194;6.642;2022-08-19T13:13:12;29.60;76.40
28969;DHT22;16076;51.194;6.642;2022-08-19T13:15:40;29.60;77.10
28969;DHT22;16076;51.194;6.642;2022-08-19T13:18:11;30.00;77.60
28969;DHT22;16076;51.194;6.642;2022-08-19T13:20:38;31.80;75.40
28969;DHT22;16076;51.194;6.642;2022-08-19T13:23:06;33.70;70.90
28969;DHT22;16076;51.194;6.642;2022-08-19T13:25:32;35.30;66.10
28969;DHT22;16076;51.194;6.642;2022-08-19T13:27:59;36.60;60.90
28969;DHT22;16076;51.194;6.642;2022-08-19T13:30:27;38.00;58.30
28969;DHT22;16076;51.194;6.642;2022-08-19T13:33:12;39.10;54.90
28969;DHT22;16076;51.194;6.642;2022-08-19T13:35:56;39.10;52.40
28969;DHT22;16076;51.194;6.642;2022-08-19T13:38:23;38.20;51.80
28969;DHT22;16076;51.194;6.642;2022-08-19T13:40:51;36.70;52.70
28969;DHT22;16076;51.194;6.642;2022-08-19T13:43:22;36.00;53.10
28969;DHT22;16076;51.194;6.642;2022-08-19T13:45:51;35.50;53.70
28969;DHT22;16076;51.194;6.642;2022-08-19T13:48:19;35.80;52.90
28969;DHT22;16076;51.194;6.642;2022-08-19T13:50:45;36.50;52.40
28969;DHT22;16076;51.194;6.642;2022-08-19T13:53:12;37.60;50.90
28969;DHT22;16076;51.194;6.642;2022-08-19T13:55:42;38.30;48.90
28969;DHT22;16076;51.194;6.642;2022-08-19T13:58:11;38.40;48.60
28969;DHT22;16076;51.194;6.642;2022-08-19T14:00:41;38.50;48.10
28969;DHT22;16076;51.194;6.642;2022-08-19T14:03:07;38.80;46.70
28969;DHT22;16076;51.194;6.642;2022-08-19T14:05:34;38.70;46.10
28969;DHT22;16076;51.194;6.642;2022-08-19T14:08:00;38.70;45.30
28969;DHT22;16076;51.194;6.642;2022-08-19T14:10:27;39.00;45.20
28969;DHT22;16076;51.194;6.642;2022-08-19T14:12:55;38.60;45.70
28969;DHT22;16076;51.194;6.642;2022-08-19T14:15:22;37.10;45.90
28969;DHT22;16076;51.194;6.642;2022-08-19T14:17:49;35.30;46.70
28969;DHT22;16076;51.194;6.642;2022-08-19T14:20:15;34.00;48.70
28969;DHT22;16076;51.194;6.642;2022-08-19T14:22:43;34.40;49.60
28969;DHT22;16076;51.194;6.642;2022-08-19T14:25:12;35.40;49.80
28969;DHT22;16076;51.194;6.642;2022-08-19T14:27:40;36.30;47.30
28969;DHT22;16076;51.194;6.642;2022-08-19T14:30:10;37.40;45.80
28969;DHT22;16076;51.194;6.642;2022-08-19T14:32:37;38.20;46.20
28969;DHT22;16076;51.194;6.642;2022-08-19T14:35:04;38.30;46.70
28969;DHT22;16076;51.194;6.642;2022-08-19T14:37:30;38.50;47.70
28969;DHT22;16076;51.194;6.642;2022-08-19T14:39:56;38.50;46.90
28969;DHT22;16076;51.194;6.642;2022-08-19T14:42:22;38.20;46.00
28969;DHT22;16076;51.194;6.642;2022-08-19T14:44:48;36.80;46.80
28969;DHT22;16076;51.194;6.642;2022-08-19T14:47:13;35.60;49.30
28969;DHT22;16076;51.194;6.642;2022-08-19T14:49:39;34.50;51.00
28969;DHT22;16076;51.194;6.642;2022-08-19T14:52:07;33.50;51.80
28969;DHT22;16076;51.194;6.642;2022-08-19T14:54:33;33.10;52.00
28969;DHT22;16076;51.194;6.642;2022-08-19T14:56:59;32.70;54.00
28969;DHT22;16076;51.194;6.642;2022-08-19T14:59:25;32.50;55.10
28969;DHT22;16076;51.194;6.642;2022-08-19T15:01:50;32.30;56.00
28969;DHT22;16076;51.194;6.642;2022-08-19T15:04:19;32.10;56.90
28969;DHT22;16076;51.194;6.642;2022-08-19T15:06:45;31.70;58.20
28969;DHT22;16076;51.194;6.642;2022-08-19T15:09:11;31.40;59.60
28969;DHT22;16076;51.194;6.642;2022-08-19T15:11:39;31.10;61.20
28969;DHT22;16076;51.194;6.642;2022-08-19T15:14:05;30.60;61.30
28969;DHT22;16076;51.194;6.642;2022-08-19T15:16:33;30.30;62.80
28969;DHT22;16076;51.194;6.642;2022-08-19T15:18:59;30.20;63.80
28969;DHT22;16076;51.194;6.642;2022-08-19T15:21:25;30.20;63.50
28969;DHT22;16076;51.194;6.642;2022-08-19T15:23:55;30.10;63.90
28969;DHT22;16076;51.194;6.642;2022-08-19T15:26:22;30.20;65.30
28969;DHT22;16076;51.194;6.642;2022-08-19T15:28:47;30.20;65.50
28969;DHT22;16076;51.194;6.642;2022-08-19T15:31:17;30.10;66.00
28969;DHT22;16076;51.194;6.642;2022-08-19T15:33:43;30.00;66.10
28969;DHT22;16076;51.194;6.642;2022-08-19T15:36:10;29.90;66.90
28969;DHT22;16076;51.194;6.642;2022-08-19T15:38:39;29.80;67.30
28969;DHT22;16076;51.194;6.642;2022-08-19T15:41:22;29.90;68.00
28969;DHT22;16076;51.194;6.642;2022-08-19T15:43:57;30.00;67.40
28969;DHT22;16076;51.194;6.642;2022-08-19T15:46:27;30.00;67.50
28969;DHT22;16076;51.194;6.642;2022-08-19T15:48:57;29.90;69.20
28969;DHT22;16076;51.194;6.642;2022-08-19T15:51:24;29.50;70.10
28969;DHT22;16076;51.194;6.642;2022-08-19T15:53:50;29.20;70.50
28969;DHT22;16076;51.194;6.642;2022-08-19T15:56:16;28.80;71.30
28969;DHT22;16076;51.194;6.642;2022-08-19T15:58:42;28.50;73.80
28969;DHT22;16076;51.194;6.642;2022-08-19T16:01:27;28.30;76.00